sensor_id;sensor_type;location;lat;lon;timestamp;P1;durP1;ratioP1;P2;durP2;ratioP2
79487;SDS011;68949;53.176;18.088;2023-05-24T00:00:41;15.50;;;8.30;;
79487;SDS011;68949;53.176;18.088;2023-05-24T00:03:24;13.10;;;7.90;;
79487;SDS011;68949;53.176;18.088;2023-05-24T00:05:50;11.00;;;7.40;;
79487;SDS011;68949;53.176;18.088;2023-05-24T00:08:17;11.90;;;7.30;;
79487;SDS011;68949;53.176;18.088;2023-05-24T00:10:44;12.20;;;8.40;;
79487;SDS011;68949;53.176;18.088;2023-05-24T00:13:11;13.60;;;7.90;;
79487;SDS011;68949;53.176;18.088;2023-05-24T00:15:38;10.10;;;7.20;;
79487;SDS011;68949;53.176;18.088;2023-05-24T00:18:05;11.30;;;5.80;;
79487;SDS011;68949;53.176;18.088;2023-05-24T00:20:31;11.70;;;6.40;;
79487;SDS011;68949;53.176;18.088;2023-05-24T00:22:58;14.30;;;6.70;;
79487;SDS011;68949;53.176;18.088;2023-05-24T00:25:25;10.60;;;5.90;;
79487;SDS011;68949;53.176;18.088;2023-05-24T00:27:51;11.90;;;7.20;;
79487;SDS011;68949;53.176;18.088;2023-05-24T00:30:18;11.60;;;5.40;;
79487;SDS011;68949;53.176;18.088;2023-05-24T00:32:45;11.00;;;5.90;;
79487;SDS011;68949;53.176;18.088;2023-05-24T00:35:12;6.10;;;3.00;;
79487;SDS011;68949;53.176;18.088;2023-05-24T00:37:38;11.60;;;6.60;;
79487;SDS011;68949;53.176;18.088;2023-05-24T00:40:08;13.20;;;8.60;;
79487;SDS011;68949;53.176;18.088;2023-05-24T00:42:35;13.70;;;8.50;;
79487;SDS011;68949;53.176;18.088;2023-05-24T00:45:02;13.40;;;8.50;;
79487;SDS011;68949;53.176;18.088;2023-05-24T00:47:28;10.20;;;6.60;;
79487;SDS011;68949;53.176;18.088;2023-05-24T00:49:55;12.20;;;7.90;;
79487;SDS011;68949;53.176;18.088;2023-05-24T00:52:22;15.30;;;8.70;;
79487;SDS011;68949;53.176;18.088;2023-05-24T00:54:49;13.40;;;8.90;;
79487;SDS011;68949;53.176;18.088;2023-05-24T00:57:16;11.70;;;6.90;;
79487;SDS011;68949;53.176;18.088;2023-05-24T00:59:44;14.30;;;8.10;;
79487;SDS011;68949;53.176;18.088;2023-05-24T01:02:11;12.60;;;7.40;;
79487;SDS011;68949;53.176;18.088;2023-05-24T01:04:40;13.00;;;7.50;;
79487;SDS011;68949;53.176;18.088;2023-05-24T01:10:34;10.10;;;6.20;;
79487;SDS011;68949;53.176;18.088;2023-05-24T01:13:18;12.00;;;7.40;;
79487;SDS011;68949;53.176;18.088;2023-05-24T01:15:59;13.90;;;8.40;;
79487;SDS011;68949;53.176;18.088;2023-05-24T01:18:33;13.40;;;7.40;;
79487;SDS011;68949;53.176;18.088;2023-05-24T01:26:33;14.30;;;9.40;;
79487;SDS011;68949;53.176;18.088;2023-05-24T01:29:12;13.80;;;8.60;;
79487;SDS011;68949;53.176;18.088;2023-05-24T01:31:40;14.20;;;8.50;;
79487;SDS011;68949;53.176;18.088;2023-05-24T01:34:07;13.40;;;8.10;;
79487;SDS011;68949;53.176;18.088;2023-05-24T01:36:33;13.90;;;8.80;;
79487;SDS011;68949;53.176;18.088;2023-05-24T01:39:00;13.40;;;8.50;;
79487;SDS011;68949;53.176;18.088;2023-05-24T01:41:38;16.90;;;10.20;;
79487;SDS011;68949;53.176;18.088;2023-05-24T01:44:25;12.30;;;8.90;;
79487;SDS011;68949;53.176;18.088;2023-05-24T01:47:03;15.80;;;10.10;;
79487;SDS011;68949;53.176;18.088;2023-05-24T01:50:01;14.10;;;8.80;;
79487;SDS011;68949;53.176;18.088;2023-05-24T01:52:51;10.00;;;6.10;;
79487;SDS011;68949;53.176;18.088;2023-05-24T01:55:19;12.70;;;7.80;;
79487;SDS011;68949;53.176;18.088;2023-05-24T01:57:49;13.20;;;8.10;;
79487;SDS011;68949;53.176;18.088;2023-05-24T02:00:17;11.60;;;7.20;;
79487;SDS011;68949;53.176;18.088;2023-05-24T02:02:45;13.60;;;7.90;;
79487;SDS011;68949;53.176;18.088;2023-05-24T02:05:12;9.80;;;4.50;;
79487;SDS011;68949;53.176;18.088;2023-05-24T02:07:39;9.00;;;5.30;;
79487;SDS011;68949;53.176;18.088;2023-05-24T02:10:07;12.30;;;8.00;;
79487;SDS011;68949;53.176;18.088;2023-05-24T02:12:34;11.20;;;7.00;;
79487;SDS011;68949;53.176;18.088;2023-05-24T02:15:01;12.50;;;8.60;;
79487;SDS011;68949;53.176;18.088;2023-05-24T02:17:28;13.70;;;8.70;;
79487;SDS011;68949;53.176;18.088;2023-05-24T02:19:58;10.90;;;8.20;;
79487;SDS011;68949;53.176;18.088;2023-05-24T02:22:26;14.50;;;9.00;;
79487;SDS011;68949;53.176;18.088;2023-05-24T02:24:53;14.80;;;9.40;;
79487;SDS011;68949;53.176;18.088;2023-05-24T02:27:20;13.90;;;8.70;;
79487;SDS011;68949;53.176;18.088;2023-05-24T02:29:47;12.80;;;8.00;;
79487;SDS011;68949;53.176;18.088;2023-05-24T02:32:14;11.60;;;7.20;;
79487;SDS011;68949;53.176;18.088;2023-05-24T02:34:40;9.20;;;6.20;;
79487;SDS011;68949;53.176;18.088;2023-05-24T02:37:08;11.80;;;6.70;;
79487;SDS011;68949;53.176;18.088;2023-05-24T02:39:34;13.10;;;7.20;;
79487;SDS011;68949;53.176;18.088;2023-05-24T02:42:01;14.20;;;8.60;;
79487;SDS011;68949;53.176;18.088;2023-05-24T02:44:30;14.30;;;8.30;;
79487;SDS011;68949;53.176;18.088;2023-05-24T02:46:56;11.40;;;7.80;;
79487;SDS011;68949;53.176;18.088;2023-05-24T02:49:23;13.50;;;8.60;;
79487;SDS011;68949;53.176;18.088;2023-05-24T02:51:50;11.80;;;6.30;;
79487;SDS011;68949;53.176;18.088;2023-05-24T02:54:18;9.30;;;5.70;;
79487;SDS011;68949;53.176;18.088;2023-05-24T02:56:45;9.60;;;4.90;;
79487;SDS011;68949;53.176;18.088;2023-05-24T02:59:15;8.50;;;5.30;;
79487;SDS011;68949;53.176;18.088;2023-05-24T03:01:42;7.80;;;4.70;;
79487;SDS011;68949;53.176;18.088;2023-05-24T03:04:09;9.00;;;5.20;;
79487;SDS011;68949;53.176;18.088;2023-05-24T03:06:36;8.20;;;4.70;;
79487;SDS011;68949;53.176;18.088;2023-05-24T03:09:03;9.20;;;4.50;;
79487;SDS011;68949;53.176;18.088;2023-05-24T03:11:30;8.50;;;5.00;;
79487;SDS011;68949;53.176;18.088;2023-05-24T03:13:57;9.40;;;4.50;;
79487;SDS011;68949;53.176;18.088;2023-05-24T03:16:24;7.30;;;3.80;;
79487;SDS011;68949;53.176;18.088;2023-05-24T03:18:51;7.10;;;3.70;;
79487;SDS011;68949;53.176;18.088;2023-05-24T03:21:21;7.10;;;4.20;;
79487;SDS011;68949;53.176;18.088;2023-05-24T03:23:49;7.00;;;3.90;;
79487;SDS011;68949;53.176;18.088;2023-05-24T03:26:16;9.60;;;4.10;;
79487;SDS011;68949;53.176;18.088;2023-05-24T03:28:44;8.40;;;3.70;;
79487;SDS011;68949;53.176;18.088;2023-05-24T03:31:11;10.30;;;3.70;;
79487;SDS011;68949;53.176;18.088;2023-05-24T03:33:38;8.70;;;4.20;;
79487;SDS011;68949;53.176;18.088;2023-05-24T03:36:05;9.40;;;4.30;;
79487;SDS011;68949;53.176;18.088;2023-05-24T03:38:32;8.10;;;5.30;;
79487;SDS011;68949;53.176;18.088;2023-05-24T03:40:59;7.70;;;4.30;;
79487;SDS011;68949;53.176;18.088;2023-05-24T03:43:28;7.20;;;4.20;;
79487;SDS011;68949;53.176;18.088;2023-05-24T03:45:56;9.90;;;5.10;;
79487;SDS011;68949;53.176;18.088;2023-05-24T03:48:23;7.60;;;4.20;;
79487;SDS011;68949;53.176;18.088;2023-05-24T03:50:51;6.50;;;3.40;;
79487;SDS011;68949;53.176;18.088;2023-05-24T03:53:18;8.70;;;3.90;;
79487;SDS011;68949;53.176;18.088;2023-05-24T03:55:47;7.40;;;4.00;;
79487;SDS011;68949;53.176;18.088;2023-05-24T03:58:13;6.50;;;3.50;;
79487;SDS011;68949;53.176;18.088;2023-05-24T04:00:40;6.00;;;3.40;;
79487;SDS011;68949;53.176;18.088;2023-05-24T04:03:07;9.40;;;4.20;;
79487;SDS011;68949;53.176;18.088;2023-05-24T04:05:34;7.80;;;4.20;;
79487;SDS011;68949;53.176;18.088;2023-05-24T04:08:01;8.10;;;4.60;;
79487;SDS011;68949;53.176;18.088;2023-05-24T04:10:28;10.30;;;6.00;;
79487;SDS011;68949;53.176;18.088;2023-05-24T04:12:55;7.10;;;4.00;;
79487;SDS011;68949;53.176;18.088;2023-05-24T04:15:22;9.60;;;4.40;;
79487;SDS011;68949;53.176;18.088;2023-05-24T04:17:49;8.20;;;4.80;;
79487;SDS011;68949;53.176;18.088;2023-05-24T04:20:21;8.10;;;4.10;;
79487;SDS011;68949;53.176;18.088;2023-05-24T04:22:50;9.00;;;5.20;;
79487;SDS011;68949;53.176;18.088;2023-05-24T04:25:17;9.10;;;4.80;;
79487;SDS011;68949;53.176;18.088;2023-05-24T04:27:44;11.50;;;4.80;;
79487;SDS011;68949;53.176;18.088;2023-05-24T04:30:14;8.30;;;4.00;;
79487;SDS011;68949;53.176;18.088;2023-05-24T04:32:42;7.50;;;4.00;;
79487;SDS011;68949;53.176;18.088;2023-05-24T04:35:12;9.90;;;5.80;;
79487;SDS011;68949;53.176;18.088;2023-05-24T04:37:39;11.10;;;6.00;;
79487;SDS011;68949;53.176;18.088;2023-05-24T04:40:07;10.00;;;5.60;;
79487;SDS011;68949;53.176;18.088;2023-05-24T04:42:34;10.20;;;5.10;;
79487;SDS011;68949;53.176;18.088;2023-05-24T04:45:01;9.70;;;5.60;;
79487;SDS011;68949;53.176;18.088;2023-05-24T04:47:28;8.70;;;4.00;;
79487;SDS011;68949;53.176;18.088;2023-05-24T04:49:55;11.00;;;6.90;;
79487;SDS011;68949;53.176;18.088;2023-05-24T04:52:21;11.60;;;7.50;;
79487;SDS011;68949;53.176;18.088;2023-05-24T04:54:48;8.00;;;4.10;;
79487;SDS011;68949;53.176;18.088;2023-05-24T04:57:16;9.00;;;5.10;;
79487;SDS011;68949;53.176;18.088;2023-05-24T04:59:43;9.40;;;4.40;;
79487;SDS011;68949;53.176;18.088;2023-05-24T05:02:10;10.70;;;5.50;;
79487;SDS011;68949;53.176;18.088;2023-05-24T05:04:36;9.20;;;4.40;;
79487;SDS011;68949;53.176;18.088;2023-05-24T05:07:03;8.70;;;4.90;;
79487;SDS011;68949;53.176;18.088;2023-05-24T05:09:30;11.60;;;4.70;;
79487;SDS011;68949;53.176;18.088;2023-05-24T05:11:57;7.40;;;3.40;;
79487;SDS011;68949;53.176;18.088;2023-05-24T05:14:25;10.00;;;5.40;;
79487;SDS011;68949;53.176;18.088;2023-05-24T05:16:51;7.80;;;4.00;;
79487;SDS011;68949;53.176;18.088;2023-05-24T05:19:18;8.90;;;4.50;;
79487;SDS011;68949;53.176;18.088;2023-05-24T05:21:45;7.30;;;3.70;;
79487;SDS011;68949;53.176;18.088;2023-05-24T05:24:13;6.60;;;3.60;;
79487;SDS011;68949;53.176;18.088;2023-05-24T05:26:41;13.20;;;7.80;;
79487;SDS011;68949;53.176;18.088;2023-05-24T05:29:07;12.80;;;7.40;;
79487;SDS011;68949;53.176;18.088;2023-05-24T05:31:34;13.30;;;8.10;;
79487;SDS011;68949;53.176;18.088;2023-05-24T05:34:01;8.70;;;5.40;;
79487;SDS011;68949;53.176;18.088;2023-05-24T05:36:28;12.90;;;7.70;;
79487;SDS011;68949;53.176;18.088;2023-05-24T05:38:55;12.70;;;7.90;;
79487;SDS011;68949;53.176;18.088;2023-05-24T05:41:21;12.50;;;7.60;;
79487;SDS011;68949;53.176;18.088;2023-05-24T05:43:48;10.20;;;6.30;;
79487;SDS011;68949;53.176;18.088;2023-05-24T05:46:15;13.10;;;8.00;;
79487;SDS011;68949;53.176;18.088;2023-05-24T05:48:41;10.50;;;6.90;;
79487;SDS011;68949;53.176;18.088;2023-05-24T05:51:08;13.70;;;9.00;;
79487;SDS011;68949;53.176;18.088;2023-05-24T05:53:35;10.10;;;7.00;;
79487;SDS011;68949;53.176;18.088;2023-05-24T05:56:01;14.00;;;6.70;;
79487;SDS011;68949;53.176;18.088;2023-05-24T05:58:28;12.40;;;7.20;;
79487;SDS011;68949;53.176;18.088;2023-05-24T06:00:55;12.70;;;6.90;;
79487;SDS011;68949;53.176;18.088;2023-05-24T06:03:21;13.60;;;8.20;;
79487;SDS011;68949;53.176;18.088;2023-05-24T06:05:48;10.30;;;4.90;;
79487;SDS011;68949;53.176;18.088;2023-05-24T06:08:15;6.30;;;2.80;;
79487;SDS011;68949;53.176;18.088;2023-05-24T06:10:41;9.70;;;6.40;;
79487;SDS011;68949;53.176;18.088;2023-05-24T06:13:08;8.90;;;3.90;;
79487;SDS011;68949;53.176;18.088;2023-05-24T06:15:35;8.20;;;4.60;;
79487;SDS011;68949;53.176;18.088;2023-05-24T06:18:01;8.50;;;4.30;;
79487;SDS011;68949;53.176;18.088;2023-05-24T06:20:28;9.70;;;4.60;;
79487;SDS011;68949;53.176;18.088;2023-05-24T06:22:55;11.00;;;5.70;;
79487;SDS011;68949;53.176;18.088;2023-05-24T06:25:22;11.20;;;5.50;;
79487;SDS011;68949;53.176;18.088;2023-05-24T06:27:49;13.70;;;7.30;;
79487;SDS011;68949;53.176;18.088;2023-05-24T06:30:19;11.90;;;7.50;;
79487;SDS011;68949;53.176;18.088;2023-05-24T06:32:45;11.10;;;6.30;;
79487;SDS011;68949;53.176;18.088;2023-05-24T06:35:12;11.00;;;6.50;;
79487;SDS011;68949;53.176;18.088;2023-05-24T06:37:39;9.40;;;5.10;;
79487;SDS011;68949;53.176;18.088;2023-05-24T06:40:06;8.50;;;3.60;;
79487;SDS011;68949;53.176;18.088;2023-05-24T06:42:35;7.30;;;3.90;;
79487;SDS011;68949;53.176;18.088;2023-05-24T06:45:02;8.70;;;4.40;;
79487;SDS011;68949;53.176;18.088;2023-05-24T06:47:29;10.50;;;5.10;;
79487;SDS011;68949;53.176;18.088;2023-05-24T06:49:56;15.10;;;8.60;;
79487;SDS011;68949;53.176;18.088;2023-05-24T06:52:23;13.50;;;7.50;;
79487;SDS011;68949;53.176;18.088;2023-05-24T06:54:49;11.10;;;5.70;;
79487;SDS011;68949;53.176;18.088;2023-05-24T06:57:17;11.00;;;7.40;;
79487;SDS011;68949;53.176;18.088;2023-05-24T06:59:44;15.40;;;9.20;;
79487;SDS011;68949;53.176;18.088;2023-05-24T07:02:10;15.00;;;9.60;;
79487;SDS011;68949;53.176;18.088;2023-05-24T07:04:37;12.50;;;7.80;;
79487;SDS011;68949;53.176;18.088;2023-05-24T07:07:07;14.00;;;8.00;;
79487;SDS011;68949;53.176;18.088;2023-05-24T07:09:39;12.70;;;8.60;;
79487;SDS011;68949;53.176;18.088;2023-05-24T07:12:07;14.20;;;8.20;;
79487;SDS011;68949;53.176;18.088;2023-05-24T07:14:34;12.00;;;7.60;;
79487;SDS011;68949;53.176;18.088;2023-05-24T07:17:01;11.90;;;8.10;;
79487;SDS011;68949;53.176;18.088;2023-05-24T07:19:28;11.50;;;7.50;;
79487;SDS011;68949;53.176;18.088;2023-05-24T07:21:55;10.00;;;4.10;;
79487;SDS011;68949;53.176;18.088;2023-05-24T07:24:22;11.40;;;7.00;;
79487;SDS011;68949;53.176;18.088;2023-05-24T07:26:50;11.90;;;6.30;;
79487;SDS011;68949;53.176;18.088;2023-05-24T07:29:18;10.90;;;6.50;;
79487;SDS011;68949;53.176;18.088;2023-05-24T07:31:47;11.40;;;6.00;;
79487;SDS011;68949;53.176;18.088;2023-05-24T07:34:14;11.40;;;6.00;;
79487;SDS011;68949;53.176;18.088;2023-05-24T07:36:41;8.40;;;5.00;;
79487;SDS011;68949;53.176;18.088;2023-05-24T07:39:08;12.30;;;6.30;;
79487;SDS011;68949;53.176;18.088;2023-05-24T07:41:41;11.00;;;5.70;;
79487;SDS011;68949;53.176;18.088;2023-05-24T07:44:07;8.60;;;4.70;;
79487;SDS011;68949;53.176;18.088;2023-05-24T07:46:34;12.70;;;4.80;;
79487;SDS011;68949;53.176;18.088;2023-05-24T07:49:01;10.40;;;6.40;;
79487;SDS011;68949;53.176;18.088;2023-05-24T07:51:28;8.10;;;4.30;;
79487;SDS011;68949;53.176;18.088;2023-05-24T07:53:54;8.80;;;5.10;;
79487;SDS011;68949;53.176;18.088;2023-05-24T07:56:21;8.00;;;4.90;;
79487;SDS011;68949;53.176;18.088;2023-05-24T07:58:49;10.80;;;6.00;;
79487;SDS011;68949;53.176;18.088;2023-05-24T08:01:17;9.80;;;4.60;;
79487;SDS011;68949;53.176;18.088;2023-05-24T08:03:44;9.70;;;5.20;;
79487;SDS011;68949;53.176;18.088;2023-05-24T08:06:11;13.00;;;6.30;;
79487;SDS011;68949;53.176;18.088;2023-05-24T08:08:38;10.80;;;6.90;;
79487;SDS011;68949;53.176;18.088;2023-05-24T08:11:06;8.30;;;5.40;;
79487;SDS011;68949;53.176;18.088;2023-05-24T08:13:33;10.20;;;6.20;;
79487;SDS011;68949;53.176;18.088;2023-05-24T08:16:00;7.80;;;4.20;;
79487;SDS011;68949;53.176;18.088;2023-05-24T08:18:26;10.00;;;6.20;;
79487;SDS011;68949;53.176;18.088;2023-05-24T08:20:53;10.20;;;6.70;;
79487;SDS011;68949;53.176;18.088;2023-05-24T08:23:20;9.00;;;5.40;;
79487;SDS011;68949;53.176;18.088;2023-05-24T08:25:47;9.20;;;5.20;;
79487;SDS011;68949;53.176;18.088;2023-05-24T08:28:14;10.60;;;6.00;;
79487;SDS011;68949;53.176;18.088;2023-05-24T08:30:42;11.30;;;7.40;;
79487;SDS011;68949;53.176;18.088;2023-05-24T08:33:08;11.30;;;6.50;;
79487;SDS011;68949;53.176;18.088;2023-05-24T08:35:35;11.90;;;8.30;;
79487;SDS011;68949;53.176;18.088;2023-05-24T08:38:02;9.90;;;6.10;;
79487;SDS011;68949;53.176;18.088;2023-05-24T08:40:29;8.10;;;4.80;;
79487;SDS011;68949;53.176;18.088;2023-05-24T08:42:58;8.30;;;3.90;;
79487;SDS011;68949;53.176;18.088;2023-05-24T08:45:29;8.70;;;5.20;;
79487;SDS011;68949;53.176;18.088;2023-05-24T08:47:58;7.40;;;4.10;;
79487;SDS011;68949;53.176;18.088;2023-05-24T08:50:26;9.70;;;6.20;;
79487;SDS011;68949;53.176;18.088;2023-05-24T08:52:54;9.60;;;5.50;;
79487;SDS011;68949;53.176;18.088;2023-05-24T08:55:23;9.90;;;5.80;;
79487;SDS011;68949;53.176;18.088;2023-05-24T08:57:50;8.50;;;5.20;;
79487;SDS011;68949;53.176;18.088;2023-05-24T09:00:18;8.60;;;5.80;;
79487;SDS011;68949;53.176;18.088;2023-05-24T09:02:45;9.20;;;5.50;;
79487;SDS011;68949;53.176;18.088;2023-05-24T09:05:13;8.90;;;5.70;;
79487;SDS011;68949;53.176;18.088;2023-05-24T09:07:43;9.10;;;6.40;;
79487;SDS011;68949;53.176;18.088;2023-05-24T09:10:11;8.70;;;5.30;;
79487;SDS011;68949;53.176;18.088;2023-05-24T09:12:39;6.40;;;4.10;;
79487;SDS011;68949;53.176;18.088;2023-05-24T09:15:10;9.00;;;5.60;;
79487;SDS011;68949;53.176;18.088;2023-05-24T09:17:37;8.10;;;5.80;;
79487;SDS011;68949;53.176;18.088;2023-05-24T09:20:06;7.30;;;4.30;;
79487;SDS011;68949;53.176;18.088;2023-05-24T09:22:34;8.20;;;4.80;;
79487;SDS011;68949;53.176;18.088;2023-05-24T09:25:04;7.40;;;4.20;;
79487;SDS011;68949;53.176;18.088;2023-05-24T09:27:32;9.90;;;7.10;;
79487;SDS011;68949;53.176;18.088;2023-05-24T09:30:01;6.70;;;6.30;;
79487;SDS011;68949;53.176;18.088;2023-05-24T09:32:30;7.60;;;4.70;;
79487;SDS011;68949;53.176;18.088;2023-05-24T09:34:57;9.60;;;7.10;;
79487;SDS011;68949;53.176;18.088;2023-05-24T09:37:26;8.00;;;5.40;;
79487;SDS011;68949;53.176;18.088;2023-05-24T09:39:54;12.00;;;6.70;;
79487;SDS011;68949;53.176;18.088;2023-05-24T09:42:24;8.70;;;5.40;;
79487;SDS011;68949;53.176;18.088;2023-05-24T09:47:33;9.20;;;5.30;;
79487;SDS011;68949;53.176;18.088;2023-05-24T09:50:04;8.00;;;5.00;;
79487;SDS011;68949;53.176;18.088;2023-05-24T09:52:35;8.40;;;5.30;;
79487;SDS011;68949;53.176;18.088;2023-05-24T09:57:42;7.40;;;5.10;;
79487;SDS011;68949;53.176;18.088;2023-05-24T10:00:10;9.00;;;4.90;;
79487;SDS011;68949;53.176;18.088;2023-05-24T10:02:43;8.80;;;5.20;;
79487;SDS011;68949;53.176;18.088;2023-05-24T10:05:11;7.80;;;4.30;;
79487;SDS011;68949;53.176;18.088;2023-05-24T10:07:39;7.80;;;5.00;;
79487;SDS011;68949;53.176;18.088;2023-05-24T10:10:08;11.30;;;6.40;;
79487;SDS011;68949;53.176;18.088;2023-05-24T10:12:36;9.80;;;6.00;;
79487;SDS011;68949;53.176;18.088;2023-05-24T10:15:09;9.10;;;6.30;;
79487;SDS011;68949;53.176;18.088;2023-05-24T10:17:37;10.60;;;6.60;;
79487;SDS011;68949;53.176;18.088;2023-05-24T10:20:04;8.50;;;5.20;;
79487;SDS011;68949;53.176;18.088;2023-05-24T10:22:36;7.00;;;3.80;;
79487;SDS011;68949;53.176;18.088;2023-05-24T10:25:09;7.20;;;4.40;;
79487;SDS011;68949;53.176;18.088;2023-05-24T10:27:50;7.20;;;4.70;;
79487;SDS011;68949;53.176;18.088;2023-05-24T10:33:06;8.40;;;5.80;;
79487;SDS011;68949;53.176;18.088;2023-05-24T10:35:34;8.20;;;5.00;;
79487;SDS011;68949;53.176;18.088;2023-05-24T10:38:06;10.80;;;6.70;;
79487;SDS011;68949;53.176;18.088;2023-05-24T10:40:34;8.10;;;4.70;;
79487;SDS011;68949;53.176;18.088;2023-05-24T10:43:07;8.30;;;5.50;;
79487;SDS011;68949;53.176;18.088;2023-05-24T10:45:39;11.00;;;6.30;;
79487;SDS011;68949;53.176;18.088;2023-05-24T10:50:40;8.10;;;5.80;;
79487;SDS011;68949;53.176;18.088;2023-05-24T10:53:17;6.50;;;4.70;;
79487;SDS011;68949;53.176;18.088;2023-05-24T10:56:07;8.70;;;6.30;;
79487;SDS011;68949;53.176;18.088;2023-05-24T10:58:57;8.10;;;4.70;;
79487;SDS011;68949;53.176;18.088;2023-05-24T11:01:29;9.90;;;7.40;;
79487;SDS011;68949;53.176;18.088;2023-05-24T11:04:08;7.90;;;5.70;;
79487;SDS011;68949;53.176;18.088;2023-05-24T11:06:55;8.60;;;5.00;;
79487;SDS011;68949;53.176;18.088;2023-05-24T11:09:29;7.70;;;5.30;;
79487;SDS011;68949;53.176;18.088;2023-05-24T11:12:00;8.10;;;5.70;;
79487;SDS011;68949;53.176;18.088;2023-05-24T11:14:35;7.80;;;5.50;;
79487;SDS011;68949;53.176;18.088;2023-05-24T11:17:07;5.30;;;2.90;;
79487;SDS011;68949;53.176;18.088;2023-05-24T11:19:35;7.50;;;5.70;;
79487;SDS011;68949;53.176;18.088;2023-05-24T11:22:06;9.20;;;6.70;;
79487;SDS011;68949;53.176;18.088;2023-05-24T11:24:34;6.50;;;4.30;;
79487;SDS011;68949;53.176;18.088;2023-05-24T11:27:01;8.60;;;5.70;;
79487;SDS011;68949;53.176;18.088;2023-05-24T11:29:29;6.90;;;4.50;;
79487;SDS011;68949;53.176;18.088;2023-05-24T11:31:57;6.50;;;4.00;;
79487;SDS011;68949;53.176;18.088;2023-05-24T11:34:30;8.10;;;5.00;;
79487;SDS011;68949;53.176;18.088;2023-05-24T11:36:58;6.70;;;5.00;;
79487;SDS011;68949;53.176;18.088;2023-05-24T11:39:31;8.70;;;5.40;;
79487;SDS011;68949;53.176;18.088;2023-05-24T11:41:59;7.10;;;4.60;;
79487;SDS011;68949;53.176;18.088;2023-05-24T11:44:29;8.40;;;6.30;;
79487;SDS011;68949;53.176;18.088;2023-05-24T11:47:01;8.40;;;5.60;;
79487;SDS011;68949;53.176;18.088;2023-05-24T11:49:30;8.40;;;5.10;;
79487;SDS011;68949;53.176;18.088;2023-05-24T11:51:57;5.40;;;3.80;;
79487;SDS011;68949;53.176;18.088;2023-05-24T11:54:28;7.60;;;5.70;;
79487;SDS011;68949;53.176;18.088;2023-05-24T11:56:57;6.00;;;4.10;;
79487;SDS011;68949;53.176;18.088;2023-05-24T11:59:27;7.90;;;5.50;;
79487;SDS011;68949;53.176;18.088;2023-05-24T12:02:04;5.80;;;3.20;;
79487;SDS011;68949;53.176;18.088;2023-05-24T12:04:32;7.20;;;5.20;;
79487;SDS011;68949;53.176;18.088;2023-05-24T12:07:00;7.30;;;4.80;;
79487;SDS011;68949;53.176;18.088;2023-05-24T12:09:26;6.40;;;4.30;;
79487;SDS011;68949;53.176;18.088;2023-05-24T12:11:54;7.20;;;5.10;;
79487;SDS011;68949;53.176;18.088;2023-05-24T12:14:26;7.60;;;4.40;;
79487;SDS011;68949;53.176;18.088;2023-05-24T12:16:55;7.80;;;5.20;;
79487;SDS011;68949;53.176;18.088;2023-05-24T12:19:23;6.20;;;4.00;;
79487;SDS011;68949;53.176;18.088;2023-05-24T12:21:56;7.80;;;5.10;;
79487;SDS011;68949;53.176;18.088;2023-05-24T12:24:24;5.90;;;3.80;;
79487;SDS011;68949;53.176;18.088;2023-05-24T12:26:56;7.50;;;5.10;;
79487;SDS011;68949;53.176;18.088;2023-05-24T12:29:33;7.80;;;5.10;;
79487;SDS011;68949;53.176;18.088;2023-05-24T12:32:01;9.10;;;5.40;;
79487;SDS011;68949;53.176;18.088;2023-05-24T12:34:28;8.40;;;6.00;;
79487;SDS011;68949;53.176;18.088;2023-05-24T12:36:55;8.10;;;5.70;;
79487;SDS011;68949;53.176;18.088;2023-05-24T12:39:23;6.70;;;4.00;;
79487;SDS011;68949;53.176;18.088;2023-05-24T12:41:59;6.10;;;3.70;;
79487;SDS011;68949;53.176;18.088;2023-05-24T12:44:29;8.00;;;5.00;;
79487;SDS011;68949;53.176;18.088;2023-05-24T12:46:57;7.50;;;5.10;;
79487;SDS011;68949;53.176;18.088;2023-05-24T12:49:25;7.30;;;5.30;;
79487;SDS011;68949;53.176;18.088;2023-05-24T12:51:53;7.40;;;4.90;;
79487;SDS011;68949;53.176;18.088;2023-05-24T12:54:23;5.70;;;3.10;;
79487;SDS011;68949;53.176;18.088;2023-05-24T12:56:52;6.70;;;5.10;;
79487;SDS011;68949;53.176;18.088;2023-05-24T12:59:19;7.50;;;5.70;;
79487;SDS011;68949;53.176;18.088;2023-05-24T13:01:46;5.80;;;3.80;;
79487;SDS011;68949;53.176;18.088;2023-05-24T13:04:18;5.90;;;4.20;;
79487;SDS011;68949;53.176;18.088;2023-05-24T13:06:46;6.10;;;4.30;;
79487;SDS011;68949;53.176;18.088;2023-05-24T13:09:14;6.20;;;4.00;;
79487;SDS011;68949;53.176;18.088;2023-05-24T13:11:43;6.60;;;4.50;;
79487;SDS011;68949;53.176;18.088;2023-05-24T13:14:10;8.30;;;5.60;;
79487;SDS011;68949;53.176;18.088;2023-05-24T13:16:37;6.30;;;3.70;;
79487;SDS011;68949;53.176;18.088;2023-05-24T13:19:04;9.60;;;8.20;;
79487;SDS011;68949;53.176;18.088;2023-05-24T13:21:30;7.30;;;5.10;;
79487;SDS011;68949;53.176;18.088;2023-05-24T13:23:57;6.10;;;3.50;;
79487;SDS011;68949;53.176;18.088;2023-05-24T13:26:24;7.30;;;4.30;;
79487;SDS011;68949;53.176;18.088;2023-05-24T13:28:51;7.60;;;4.20;;
79487;SDS011;68949;53.176;18.088;2023-05-24T13:31:18;7.90;;;5.60;;
79487;SDS011;68949;53.176;18.088;2023-05-24T13:33:44;6.30;;;3.80;;
79487;SDS011;68949;53.176;18.088;2023-05-24T13:36:11;7.50;;;4.90;;
79487;SDS011;68949;53.176;18.088;2023-05-24T13:38:38;7.00;;;4.00;;
79487;SDS011;68949;53.176;18.088;2023-05-24T13:41:05;9.00;;;5.20;;
79487;SDS011;68949;53.176;18.088;2023-05-24T13:43:32;7.20;;;4.80;;
79487;SDS011;68949;53.176;18.088;2023-05-24T13:45:59;5.80;;;4.00;;
79487;SDS011;68949;53.176;18.088;2023-05-24T13:48:26;7.30;;;3.50;;
79487;SDS011;68949;53.176;18.088;2023-05-24T13:50:53;7.40;;;5.60;;
79487;SDS011;68949;53.176;18.088;2023-05-24T13:53:20;8.60;;;4.80;;
79487;SDS011;68949;53.176;18.088;2023-05-24T13:55:48;8.10;;;5.30;;
79487;SDS011;68949;53.176;18.088;2023-05-24T13:58:15;7.40;;;5.40;;
79487;SDS011;68949;53.176;18.088;2023-05-24T14:00:41;7.80;;;5.60;;
79487;SDS011;68949;53.176;18.088;2023-05-24T14:03:09;8.20;;;5.60;;
79487;SDS011;68949;53.176;18.088;2023-05-24T14:05:38;9.10;;;6.70;;
79487;SDS011;68949;53.176;18.088;2023-05-24T14:08:06;6.90;;;4.90;;
79487;SDS011;68949;53.176;18.088;2023-05-24T14:10:34;7.60;;;4.60;;
79487;SDS011;68949;53.176;18.088;2023-05-24T14:13:05;9.20;;;7.40;;
79487;SDS011;68949;53.176;18.088;2023-05-24T14:15:32;8.40;;;6.40;;
79487;SDS011;68949;53.176;18.088;2023-05-24T14:18:00;6.70;;;4.30;;
79487;SDS011;68949;53.176;18.088;2023-05-24T14:20:33;6.60;;;4.80;;
79487;SDS011;68949;53.176;18.088;2023-05-24T14:23:03;8.40;;;6.80;;
79487;SDS011;68949;53.176;18.088;2023-05-24T14:25:29;8.70;;;6.30;;
79487;SDS011;68949;53.176;18.088;2023-05-24T14:27:57;7.00;;;5.30;;
79487;SDS011;68949;53.176;18.088;2023-05-24T14:30:27;9.30;;;6.50;;
79487;SDS011;68949;53.176;18.088;2023-05-24T14:32:53;9.30;;;7.10;;
79487;SDS011;68949;53.176;18.088;2023-05-24T14:35:20;8.90;;;5.70;;
79487;SDS011;68949;53.176;18.088;2023-05-24T14:37:47;10.80;;;7.90;;
79487;SDS011;68949;53.176;18.088;2023-05-24T14:40:13;8.70;;;5.80;;
79487;SDS011;68949;53.176;18.088;2023-05-24T14:42:40;7.30;;;5.00;;
79487;SDS011;68949;53.176;18.088;2023-05-24T14:45:07;7.30;;;5.20;;
79487;SDS011;68949;53.176;18.088;2023-05-24T14:47:35;8.20;;;6.20;;
79487;SDS011;68949;53.176;18.088;2023-05-24T14:50:01;8.00;;;4.80;;
79487;SDS011;68949;53.176;18.088;2023-05-24T14:52:28;8.10;;;5.70;;
79487;SDS011;68949;53.176;18.088;2023-05-24T14:54:56;8.90;;;6.10;;